Startpagina
METAR-TAF:

METAR-TAF

Vliegvelden :

London Heathrow Airport

Londen-Heathrow, Engeland

breedte: 51-29N, lengte: 000-27W, hoogte: 24 m

Actueel weer

Dit bericht is 22 minuten geleden gemaakt, om 19:50 UTC
Wind 6 kt uit het oosten
Temperatuur 9°C
Vochtigheid 100%
Druk 1026 hPa
Zicht: 2000 m
Gebroken wolken op 200 ft
nevel

METAR: EGLL 161950Z 09006KT 2000 BR BKN002 09/09 Q1026 TEMPO SCT002 BKN003

Tijdstip: 20:12 (20:12 UTC)

Verwachting

Dit bericht is 3 uur en het 11 minuten geleden gemaakt, om 17:01 UTC
Verwachting geldig van 16 om 18 UTC tot 17 om 24 UTC
Wind 6 kt uit het oosten
Zicht: 3000 m
Gebroken wolken op 400 ft
nevel
Wijzigt naar
van 17 om 02 UTC tot 17 om 05 UTC
Zicht: 6000 m
Gebroken wolken op 600 ft
Wijzigt naar
van 17 om 05 UTC tot 17 om 08 UTC
Weinig wolken op 1200 ft
Wijzigt naar
van 17 om 10 UTC tot 17 om 13 UTC
Zicht 10 km of meer

TAF: EGLL 161701Z 1618/1724 09006KT 3000 BR BKN004 BECMG 1702/1705 6000 NSW BKN006 BECMG 1705/1708 FEW012 BECMG 1710/1713 9999

Waarnemingen en weersverwachtingen van meer dan 4000 vliegvelden (METAR en TAF).

De beschikbare stations zijn de gele en rode punten op de kaart.

Ga met uw muis naar het station om de naam te zien.

Klik dan om waarnemingen en weersverwachtingen te zien.

kaart wijzigen: klik op de groene knoppen met een zwart kruis om in te zoomen, op de groene knop met een streepje om uit te zoomen of op de groene pijlen voor aangrenzende kaarten.


METAR-TAF: